Xinxiang, China
Current Conditions -  °F | °C
As of 12:00 PM on Thursday 23 Oct 2014 (Local Time) from ZHCC Reporting Station
Haze Haze  
Wind Chill: 72°   Ceiling: Unl
Heat Index: 72°   Visibility: 1.2mi
Dew Point: 59°   Wind: 9mph
Humidity: 64%   Direction: 200°SSW
Pressure: 30.03"   Gusts: NA
Location:  35.32°N, 113.87°E
Report Text: ZHCC 230400Z 20004MPS 150V230 2000 HZ NSC 22/15 Q1017 BECMG3000
Loading
Personal Weather Stations






























Interactive Weather Map
Tropical Storm Tracking
New forecast layout! Learn more

10-Day Weather Forecast

Advertisements
Track Severe Weather on mobile